createdAt,value
2022-09-02T00:02:50.555Z,11.99
2022-09-02T00:22:55.941Z,12.27
2022-09-02T00:42:58.872Z,11.86
2022-09-02T01:03:01.299Z,11.61
2022-09-02T01:23:03.892Z,11.18
2022-09-02T01:43:08.622Z,11.05
2022-09-02T02:03:11.150Z,10.94
2022-09-02T02:23:13.916Z,11.20
2022-09-02T02:43:16.562Z,10.84
2022-09-02T03:03:23.665Z,10.70
2022-09-02T03:23:26.713Z,10.43
2022-09-02T03:43:29.172Z,10.13
2022-09-02T04:03:31.922Z,9.93
2022-09-02T04:23:35.028Z,9.70
2022-09-02T04:43:38.005Z,10.15
2022-09-02T05:03:40.458Z,11.33
2022-09-02T05:23:43.037Z,12.77
2022-09-02T05:43:48.024Z,14.00
2022-09-02T06:03:51.603Z,15.23
2022-09-02T06:23:55.596Z,16.15
2022-09-02T06:43:58.433Z,16.08
2022-09-02T07:04:23.422Z,15.83
2022-09-02T07:24:25.870Z,15.80
2022-09-02T07:44:29.010Z,16.20
2022-09-02T08:45:04.636Z,18.06
2022-09-02T09:25:24.545Z,19.40
2022-09-02T10:25:59.690Z,18.80
2022-09-02T10:46:02.265Z,19.65
2022-09-02T11:06:07.250Z,20.38
2022-09-02T12:07:07.894Z,20.05
2022-09-02T12:27:11.399Z,21.06
2022-09-02T13:07:16.582Z,21.04
2022-09-02T13:27:20.384Z,20.55
2022-09-02T13:47:23.231Z,20.93
2022-09-02T14:07:25.657Z,20.24
2022-09-02T14:27:28.414Z,20.27
2022-09-02T14:47:30.895Z,21.58
2022-09-02T15:07:33.780Z,21.02
2022-09-02T15:27:36.299Z,20.26
2022-09-02T15:47:38.989Z,20.16
2022-09-02T16:07:41.455Z,18.91
2022-09-02T16:27:53.330Z,19.17
2022-09-02T16:47:56.145Z,18.31
2022-09-02T17:08:00.135Z,18.42
2022-09-02T17:28:02.957Z,18.07
2022-09-02T17:48:32.283Z,17.71
